createdAt,value
2018-06-16T00:04:20.399Z,99.90
2018-06-16T00:09:07.470Z,99.90
2018-06-16T00:13:51.878Z,99.90
2018-06-16T00:18:36.253Z,99.90
2018-06-16T00:23:20.728Z,99.90
2018-06-16T00:28:05.131Z,99.90
2018-06-16T00:32:49.476Z,99.90
2018-06-16T00:37:33.923Z,99.90
2018-06-16T00:42:18.472Z,99.90
2018-06-16T00:47:02.815Z,99.90
2018-06-16T00:51:47.349Z,99.90
2018-06-16T00:56:31.759Z,99.90
2018-06-16T01:01:16.243Z,99.90
2018-06-16T01:06:00.770Z,99.90
2018-06-16T01:10:45.143Z,99.90
2018-06-16T01:15:29.594Z,99.90
2018-06-16T01:20:13.942Z,99.90
2018-06-16T01:24:58.402Z,99.90
2018-06-16T01:29:43.028Z,99.90
2018-06-16T01:34:27.427Z,99.90
2018-06-16T01:43:57.156Z,99.90
2018-06-16T01:48:41.628Z,99.90
2018-06-16T01:53:26.015Z,99.90
2018-06-16T01:58:10.438Z,99.90
2018-06-16T02:02:55.121Z,99.90
2018-06-16T02:07:39.787Z,99.90
2018-06-16T02:12:24.271Z,99.90
2018-06-16T02:17:08.631Z,99.90
2018-06-16T02:21:53.015Z,99.90
2018-06-16T02:26:37.520Z,99.90
2018-06-16T02:31:21.955Z,99.90
2018-06-16T02:36:06.997Z,99.90
2018-06-16T02:40:51.661Z,99.90
2018-06-16T02:45:36.042Z,99.90
2018-06-16T02:50:20.696Z,99.90
2018-06-16T02:55:05.456Z,99.90
2018-06-16T02:59:49.865Z,99.90
2018-06-16T03:04:34.238Z,99.90
2018-06-16T03:09:18.696Z,99.90
2018-06-16T03:14:03.377Z,99.90
2018-06-16T03:18:47.782Z,99.90
2018-06-16T03:23:32.792Z,99.90
2018-06-16T03:28:17.155Z,99.90
2018-06-16T03:33:01.499Z,99.90
2018-06-16T03:37:45.830Z,99.90
2018-06-16T03:42:30.379Z,99.90
2018-06-16T03:47:14.799Z,99.90
2018-06-16T03:51:59.142Z,99.90
2018-06-16T03:56:43.536Z,99.90
2018-06-16T04:01:28.263Z,99.90
2018-06-16T04:06:12.865Z,99.90
2018-06-16T04:10:57.395Z,99.90
2018-06-16T04:15:41.894Z,99.90
2018-06-16T04:20:26.296Z,99.90
2018-06-16T04:25:10.629Z,99.90
2018-06-16T04:29:54.991Z,99.90
2018-06-16T04:34:39.461Z,99.90
2018-06-16T04:39:23.966Z,99.90
2018-06-16T04:44:08.374Z,99.90
2018-06-16T04:48:52.996Z,99.90
2018-06-16T04:53:37.721Z,99.90
2018-06-16T04:58:22.190Z,99.90
2018-06-16T05:03:07.019Z,99.90
2018-06-16T05:07:51.421Z,99.90
2018-06-16T05:12:35.795Z,99.90
2018-06-16T05:17:20.210Z,99.90
2018-06-16T05:22:04.787Z,99.90
2018-06-16T05:26:49.233Z,99.90
2018-06-16T05:31:33.856Z,99.90
2018-06-16T05:36:18.619Z,99.90
2018-06-16T05:41:03.055Z,99.90
2018-06-16T05:45:47.564Z,99.90
2018-06-16T05:50:32.002Z,99.90
2018-06-16T05:55:22.901Z,99.90
2018-06-16T06:00:07.512Z,99.90
2018-06-16T06:04:52.692Z,99.90
2018-06-16T06:09:37.160Z,99.90
2018-06-16T06:14:21.721Z,99.90
2018-06-16T06:19:06.260Z,99.90
2018-06-16T06:23:50.731Z,99.90
2018-06-16T06:28:35.116Z,99.90
2018-06-16T06:33:19.819Z,99.90
2018-06-16T06:38:04.444Z,99.90
2018-06-16T06:42:49.298Z,99.90
2018-06-16T06:47:38.450Z,99.90
2018-06-16T06:52:39.338Z,99.90
2018-06-16T06:57:26.300Z,99.90
2018-06-16T07:02:14.789Z,99.90
2018-06-16T07:07:00.820Z,99.90
2018-06-16T07:11:51.568Z,99.90
2018-06-16T07:16:36.179Z,99.90
2018-06-16T07:21:20.602Z,99.90
2018-06-16T07:26:05.268Z,99.90
2018-06-16T07:30:49.687Z,99.90
2018-06-16T07:35:34.119Z,99.90
2018-06-16T07:40:18.574Z,99.90
2018-06-16T07:45:02.883Z,99.60
2018-06-16T07:49:47.262Z,97.90
2018-06-16T07:54:31.655Z,95.90
2018-06-16T07:59:17.307Z,96.00
2018-06-16T08:04:01.708Z,95.20
2018-06-16T08:08:46.255Z,92.60
2018-06-16T08:13:30.735Z,92.30
2018-06-16T08:18:15.172Z,93.70
2018-06-16T08:22:59.522Z,92.00
2018-06-16T08:27:44.121Z,91.20
2018-06-16T08:32:28.650Z,89.40
2018-06-16T08:37:13.080Z,90.30
2018-06-16T08:41:57.505Z,90.70
2018-06-16T08:46:41.903Z,90.40
2018-06-16T08:51:26.366Z,87.40
2018-06-16T08:56:10.794Z,86.30
2018-06-16T09:00:55.170Z,85.80
2018-06-16T09:05:40.570Z,84.40
2018-06-16T09:10:25.056Z,80.40
2018-06-16T09:15:09.499Z,80.80
2018-06-16T09:19:54.193Z,78.30
2018-06-16T09:24:38.606Z,75.20
2018-06-16T09:29:23.062Z,73.30
2018-06-16T09:34:08.366Z,75.40
2018-06-16T09:38:52.886Z,67.80
2018-06-16T09:43:38.352Z,66.70
2018-06-16T09:48:22.744Z,66.60
2018-06-16T09:53:07.364Z,64.20
2018-06-16T09:57:51.784Z,61.20
2018-06-16T10:02:36.320Z,61.70
2018-06-16T10:07:20.850Z,60.00
2018-06-16T10:12:05.401Z,58.40
2018-06-16T10:16:49.950Z,56.90
2018-06-16T10:21:34.452Z,56.80
2018-06-16T10:26:18.994Z,60.10
2018-06-16T10:31:03.436Z,62.30
2018-06-16T10:35:47.863Z,62.20
2018-06-16T10:40:32.262Z,58.90
2018-06-16T10:45:16.720Z,59.90
2018-06-16T10:50:01.114Z,59.50
2018-06-16T10:54:45.586Z,60.80
2018-06-16T10:59:30.166Z,60.60
2018-06-16T11:04:14.839Z,61.40
2018-06-16T11:08:59.170Z,59.50
2018-06-16T11:13:43.780Z,59.10
2018-06-16T11:18:28.335Z,62.10
2018-06-16T11:23:13.044Z,59.00
2018-06-16T11:27:58.618Z,62.40
2018-06-16T11:32:43.194Z,60.40
2018-06-16T11:37:27.799Z,59.70
2018-06-16T11:42:12.269Z,59.50
2018-06-16T11:46:56.713Z,58.90
2018-06-16T11:51:41.376Z,64.70
2018-06-16T11:56:25.781Z,56.60
2018-06-16T12:01:11.178Z,57.20
2018-06-16T12:05:55.984Z,63.00
2018-06-16T12:10:40.563Z,59.50
2018-06-16T12:15:25.841Z,65.30
2018-06-16T12:20:10.331Z,68.80
2018-06-16T12:24:54.753Z,58.50
2018-06-16T12:29:40.945Z,66.60
2018-06-16T12:34:25.308Z,61.80
2018-06-16T12:39:10.835Z,66.90
2018-06-16T12:43:55.452Z,66.50
2018-06-16T12:48:39.830Z,61.90
2018-06-16T12:53:24.804Z,64.10
2018-06-16T12:58:09.122Z,61.80
2018-06-16T13:02:53.705Z,59.70
2018-06-16T13:07:38.432Z,57.40
2018-06-16T13:12:23.053Z,58.60
2018-06-16T13:17:07.722Z,58.40
2018-06-16T13:21:52.270Z,51.50
2018-06-16T13:26:36.868Z,49.80
2018-06-16T13:31:21.531Z,49.10
2018-06-16T13:36:05.939Z,50.00
2018-06-16T13:40:50.645Z,46.60
2018-06-16T13:45:35.189Z,46.70
2018-06-16T13:50:19.544Z,48.80
2018-06-16T13:55:03.926Z,46.00
2018-06-16T13:59:48.370Z,52.40
2018-06-16T14:04:32.872Z,52.90
2018-06-16T14:09:17.276Z,54.60
2018-06-16T14:14:01.722Z,55.90
2018-06-16T14:18:46.339Z,52.70
2018-06-16T14:23:30.970Z,50.60
2018-06-16T14:28:15.291Z,50.40
2018-06-16T14:32:59.698Z,46.10
2018-06-16T14:37:44.199Z,44.30
2018-06-16T14:42:28.539Z,45.30
2018-06-16T14:47:12.904Z,44.90
2018-06-16T14:51:57.330Z,46.00
2018-06-16T14:56:41.704Z,47.10
2018-06-16T15:01:26.122Z,49.20
2018-06-16T15:06:10.533Z,46.60
2018-06-16T15:10:55.386Z,45.00
2018-06-16T15:15:40.046Z,46.00
2018-06-16T15:20:24.410Z,46.10
2018-06-16T15:25:08.772Z,41.90
2018-06-16T15:29:53.242Z,42.50
2018-06-16T15:34:37.723Z,44.10
2018-06-16T15:39:22.129Z,45.10
2018-06-16T15:44:06.699Z,46.40
2018-06-16T15:48:51.028Z,47.60
2018-06-16T15:53:35.588Z,45.50
2018-06-16T15:58:20.046Z,49.70
2018-06-16T16:03:04.385Z,48.70
2018-06-16T16:07:49.674Z,48.10
2018-06-16T16:12:34.249Z,47.70
2018-06-16T16:17:18.702Z,54.00
2018-06-16T16:22:03.250Z,50.10
2018-06-16T16:26:47.662Z,50.70
2018-06-16T16:31:32.144Z,52.10
2018-06-16T16:36:16.599Z,52.20
2018-06-16T16:41:01.118Z,55.60
2018-06-16T16:45:45.656Z,58.20
2018-06-16T16:50:30.149Z,54.40
2018-06-16T16:55:14.510Z,55.80
2018-06-16T16:59:58.939Z,51.30
2018-06-16T17:04:43.365Z,54.60
2018-06-16T17:09:28.535Z,56.10
2018-06-16T17:14:13.028Z,58.00
2018-06-16T17:18:57.626Z,60.10
2018-06-16T17:23:42.004Z,66.50
2018-06-16T17:28:26.359Z,62.50
2018-06-16T17:33:10.754Z,60.60
2018-06-16T17:37:55.238Z,68.90
2018-06-16T17:42:39.690Z,65.30
2018-06-16T17:47:24.391Z,65.50
2018-06-16T17:52:08.849Z,64.80
2018-06-16T17:56:53.263Z,67.50
2018-06-16T18:01:37.735Z,68.50
2018-06-16T18:06:22.116Z,71.40
2018-06-16T18:11:06.680Z,69.90
2018-06-16T18:15:51.182Z,70.90
2018-06-16T18:25:20.275Z,68.90
2018-06-16T18:30:04.787Z,73.70
2018-06-16T18:34:49.342Z,73.40
2018-06-16T18:39:33.735Z,75.00
2018-06-16T18:44:18.236Z,77.00
2018-06-16T18:49:02.883Z,76.70
2018-06-16T18:53:47.395Z,78.70
2018-06-16T18:58:31.818Z,78.40
2018-06-16T19:03:16.225Z,81.60
2018-06-16T19:08:00.758Z,81.10
2018-06-16T19:12:46.202Z,80.80
2018-06-16T19:17:30.689Z,82.50
2018-06-16T19:22:15.264Z,81.50
2018-06-16T19:26:59.816Z,83.10
2018-06-16T19:31:44.410Z,87.00
2018-06-16T19:36:29.022Z,88.20
2018-06-16T19:41:13.585Z,87.20
2018-06-16T19:45:58.089Z,86.90
2018-06-16T19:50:42.726Z,90.10
2018-06-16T19:55:27.617Z,90.70
2018-06-16T20:00:12.193Z,91.60
2018-06-16T20:04:57.039Z,92.30
2018-06-16T20:09:41.659Z,92.80
2018-06-16T20:14:26.119Z,94.10
2018-06-16T20:19:10.735Z,93.80
2018-06-16T20:23:55.268Z,94.70
2018-06-16T20:28:39.699Z,95.70
2018-06-16T20:33:24.156Z,94.50
2018-06-16T20:38:08.576Z,93.40
2018-06-16T20:42:53.072Z,93.50
2018-06-16T20:47:37.881Z,92.30
2018-06-16T20:52:22.585Z,92.10
2018-06-16T21:01:51.067Z,92.20
2018-06-16T21:06:35.494Z,92.10
2018-06-16T21:11:20.046Z,91.70
2018-06-16T21:16:04.474Z,91.50
2018-06-16T21:20:48.866Z,91.70
2018-06-16T21:25:33.402Z,92.00
2018-06-16T21:30:17.847Z,92.20
2018-06-16T21:35:02.430Z,92.60
2018-06-16T21:39:46.762Z,93.10
2018-06-16T21:44:31.222Z,93.10
2018-06-16T21:49:15.646Z,93.30
2018-06-16T21:54:00.111Z,93.30
2018-06-16T21:58:44.654Z,93.20
2018-06-16T22:03:29.137Z,93.30
2018-06-16T22:08:18.650Z,93.10
2018-06-16T22:13:03.069Z,92.70
2018-06-16T22:17:47.919Z,92.60
2018-06-16T22:22:32.321Z,92.60
2018-06-16T22:27:16.815Z,92.40
2018-06-16T22:32:01.222Z,92.20
2018-06-16T22:36:45.594Z,92.00
2018-06-16T22:41:29.967Z,92.00
2018-06-16T22:46:14.506Z,92.30
2018-06-16T22:55:42.807Z,92.10
2018-06-16T23:00:28.890Z,91.90
2018-06-16T23:05:13.355Z,91.70
2018-06-16T23:09:57.884Z,91.60
2018-06-16T23:14:43.118Z,91.40
2018-06-16T23:19:27.458Z,91.40
2018-06-16T23:24:12.880Z,91.40
2018-06-16T23:28:57.588Z,91.30
2018-06-16T23:33:42.015Z,91.30
2018-06-16T23:38:26.887Z,91.20
2018-06-16T23:43:11.198Z,91.20
2018-06-16T23:47:55.716Z,91.60
2018-06-16T23:52:40.121Z,91.80
2018-06-16T23:57:24.548Z,91.90
